createdAt,value
2019-01-29T00:00:58.275Z,99568.17
2019-01-29T00:03:28.293Z,99568.53
2019-01-29T00:05:58.262Z,99573.65
2019-01-29T00:08:28.293Z,99565.98
2019-01-29T00:10:58.352Z,99570.80
2019-01-29T00:13:28.454Z,99572.86
2019-01-29T00:15:58.477Z,99575.34
2019-01-29T00:18:28.541Z,99573.87
2019-01-29T00:20:58.638Z,99579.33
2019-01-29T00:23:28.650Z,99580.61
2019-01-29T00:25:58.638Z,99581.47
2019-01-29T00:28:28.631Z,99588.27
2019-01-29T00:30:58.730Z,99586.14
2019-01-29T00:33:28.817Z,99584.91
2019-01-29T00:35:58.836Z,99588.77
2019-01-29T00:38:28.813Z,99594.17
2019-01-29T00:40:58.872Z,99592.96
2019-01-29T00:43:28.856Z,99602.31
2019-01-29T00:45:58.890Z,99599.47
2019-01-29T00:48:28.904Z,99604.15
2019-01-29T00:50:58.924Z,99614.98
2019-01-29T00:53:28.911Z,99604.83
2019-01-29T00:55:58.892Z,99611.19
2019-01-29T00:58:28.928Z,99610.78
2019-01-29T01:00:58.906Z,99610.69
2019-01-29T01:03:28.930Z,99610.88
2019-01-29T01:05:58.924Z,99618.09
2019-01-29T01:08:29.180Z,99616.68
2019-01-29T01:10:59.264Z,99618.19
2019-01-29T01:13:29.320Z,99618.66
2019-01-29T01:15:59.405Z,99630.98
2019-01-29T01:18:29.482Z,99627.51
2019-01-29T01:20:59.557Z,99628.94
2019-01-29T01:23:29.557Z,99638.20
2019-01-29T01:25:59.542Z,99638.31
2019-01-29T01:28:29.546Z,99643.94
2019-01-29T01:30:59.615Z,99645.08
2019-01-29T01:33:29.704Z,99645.58
2019-01-29T01:35:59.700Z,99649.60
2019-01-29T01:38:29.795Z,99651.31
2019-01-29T01:40:59.837Z,99655.85
2019-01-29T01:43:30.752Z,99659.94
2019-01-29T01:46:00.741Z,99657.30
2019-01-29T01:48:30.774Z,99664.84
2019-01-29T01:51:00.768Z,99658.41
2019-01-29T01:53:30.789Z,99660.53
2019-01-29T01:56:00.838Z,99662.08
2019-01-29T01:58:30.841Z,99668.61
2019-01-29T02:01:00.857Z,99667.19
2019-01-29T02:03:30.856Z,99664.83
2019-01-29T02:06:00.922Z,99667.68
2019-01-29T02:08:34.086Z,99666.36
2019-01-29T02:11:10.150Z,99674.69
2019-01-29T02:13:40.152Z,99672.97
2019-01-29T02:16:10.178Z,99679.67
2019-01-29T02:18:40.169Z,99681.69
2019-01-29T02:21:10.188Z,99683.25
2019-01-29T02:23:40.180Z,99691.48
2019-01-29T02:26:10.176Z,99688.55
2019-01-29T02:28:40.228Z,99686.59
2019-01-29T02:31:10.232Z,99690.46
2019-01-29T02:33:40.194Z,99691.19
2019-01-29T02:36:10.217Z,99689.53
2019-01-29T02:38:40.190Z,99695.94
2019-01-29T02:41:10.224Z,99692.70
2019-01-29T02:43:40.212Z,99691.59
2019-01-29T02:46:10.264Z,99699.31
2019-01-29T02:48:40.244Z,99696.87
2019-01-29T02:51:10.288Z,99698.00
2019-01-29T02:53:40.286Z,99703.88
2019-01-29T02:56:10.263Z,99707.05
2019-01-29T02:58:40.292Z,99703.59
2019-01-29T03:01:10.326Z,99708.19
2019-01-29T03:03:40.345Z,99702.80
2019-01-29T03:06:10.328Z,99712.98
2019-01-29T03:08:40.335Z,99710.83
2019-01-29T03:11:10.310Z,99712.05
2019-01-29T03:13:40.320Z,99714.70
2019-01-29T03:16:10.308Z,99716.02
2019-01-29T03:18:40.321Z,99722.73
2019-01-29T03:21:10.306Z,99728.02
2019-01-29T03:23:40.312Z,99728.31
2019-01-29T03:26:10.301Z,99729.23
2019-01-29T03:28:40.327Z,99736.77
2019-01-29T03:31:10.326Z,99733.10
2019-01-29T03:33:40.322Z,99728.91
2019-01-29T03:36:10.337Z,99739.30
2019-01-29T03:38:40.336Z,99739.52
2019-01-29T03:41:10.352Z,99742.76
2019-01-29T03:43:40.342Z,99741.97
2019-01-29T03:46:10.357Z,99740.21
2019-01-29T03:48:40.344Z,99742.86
2019-01-29T03:51:10.397Z,99752.72
2019-01-29T03:53:40.370Z,99750.28
2019-01-29T03:56:10.376Z,99747.65
2019-01-29T03:58:40.382Z,99749.67
2019-01-29T04:01:10.400Z,99757.51
2019-01-29T04:03:40.375Z,99757.41
2019-01-29T04:06:10.387Z,99760.55
2019-01-29T04:08:40.379Z,99759.55
2019-01-29T04:11:10.428Z,99767.89
2019-01-29T04:13:44.769Z,99768.69
2019-01-29T04:16:19.832Z,99771.03
2019-01-29T04:18:52.093Z,99771.03
2019-01-29T04:21:26.290Z,99773.78
2019-01-29T04:24:00.929Z,99770.21
2019-01-29T04:26:35.587Z,99778.38
2019-01-29T04:29:12.247Z,99773.59
2019-01-29T04:31:42.875Z,99775.20
2019-01-29T04:34:18.715Z,99772.17
2019-01-29T04:36:48.860Z,99773.48
2019-01-29T04:39:18.880Z,99775.70
2019-01-29T04:41:59.073Z,99778.25
2019-01-29T04:44:29.229Z,99782.95
2019-01-29T04:46:59.238Z,99788.94
2019-01-29T04:49:29.240Z,99788.64
2019-01-29T04:51:59.239Z,99782.95
2019-01-29T04:54:29.229Z,99785.37
2019-01-29T04:56:59.249Z,99789.06
2019-01-29T04:59:29.265Z,99789.47
2019-01-29T05:01:59.293Z,99785.50
2019-01-29T05:04:29.374Z,99791.19
2019-01-29T05:06:59.384Z,99789.36
2019-01-29T05:09:29.385Z,99793.34
2019-01-29T05:11:59.389Z,99790.39
2019-01-29T05:14:29.371Z,99795.88
2019-01-29T05:16:59.372Z,99795.98
2019-01-29T05:19:29.365Z,99796.58
2019-01-29T05:21:59.410Z,99799.84
2019-01-29T05:24:29.423Z,99796.18
2019-01-29T05:26:59.441Z,99799.42
2019-01-29T05:29:29.537Z,99805.94
2019-01-29T05:31:59.532Z,99800.75
2019-01-29T05:34:29.531Z,99795.45
2019-01-29T05:36:59.560Z,99807.56
2019-01-29T05:39:29.571Z,99812.76
2019-01-29T05:41:59.544Z,99814.70
2019-01-29T05:44:29.579Z,99820.40
2019-01-29T05:46:59.589Z,99822.02
2019-01-29T05:49:29.602Z,99817.02
2019-01-29T05:51:59.649Z,99819.57
2019-01-29T05:54:29.653Z,99820.50
2019-01-29T05:56:59.689Z,99822.72
2019-01-29T05:59:31.403Z,99817.13
2019-01-29T06:02:02.381Z,99828.84
2019-01-29T06:04:39.714Z,99824.37
2019-01-29T06:07:09.727Z,99831.28
2019-01-29T06:09:39.725Z,99832.80
2019-01-29T06:12:09.731Z,99837.80
2019-01-29T06:14:39.715Z,99838.30
2019-01-29T06:17:09.739Z,99833.63
2019-01-29T06:19:39.731Z,99833.73
2019-01-29T06:22:09.738Z,99837.27
2019-01-29T06:24:39.720Z,99842.27
2019-01-29T06:27:09.744Z,99840.95
2019-01-29T06:29:39.847Z,99843.89
2019-01-29T06:32:09.886Z,99843.48
2019-01-29T06:34:39.893Z,99847.06
2019-01-29T06:37:09.911Z,99850.53
2019-01-29T06:39:39.912Z,99857.15
2019-01-29T06:42:09.931Z,99861.31
2019-01-29T06:44:39.933Z,99863.53
2019-01-29T06:47:10.087Z,99865.16
2019-01-29T06:49:40.070Z,99868.31
2019-01-29T06:52:10.073Z,99859.89
2019-01-29T06:54:40.103Z,99862.84
2019-01-29T06:57:10.163Z,99869.55
2019-01-29T06:59:40.179Z,99866.50
2019-01-29T07:02:10.228Z,99872.60
2019-01-29T07:04:40.202Z,99884.82
2019-01-29T07:07:10.268Z,99881.16
2019-01-29T07:09:40.270Z,99882.58
2019-01-29T07:12:10.426Z,99892.34
2019-01-29T07:14:40.452Z,99899.79
2019-01-29T07:17:29.583Z,99899.88
2019-01-29T07:20:02.519Z,99904.37
2019-01-29T07:22:32.608Z,99911.38
2019-01-29T07:25:02.673Z,99908.74
2019-01-29T07:27:32.765Z,99910.16
2019-01-29T07:30:02.827Z,99896.83
2019-01-29T07:32:32.832Z,99910.98
2019-01-29T07:35:02.881Z,99908.42
2019-01-29T07:37:32.940Z,99906.39
2019-01-29T07:40:03.000Z,99905.69
2019-01-29T07:42:33.100Z,99902.42
2019-01-29T07:45:03.192Z,99910.59
2019-01-29T07:47:33.190Z,99907.02
2019-01-29T07:50:03.332Z,99908.55
2019-01-29T07:52:33.328Z,99906.73
2019-01-29T07:55:10.770Z,99912.81
2019-01-29T07:57:40.808Z,99920.45
2019-01-29T08:00:11.488Z,99924.44
2019-01-29T08:02:41.576Z,99924.14
2019-01-29T08:05:11.680Z,99924.13
2019-01-29T08:07:41.720Z,99926.38
2019-01-29T08:10:11.758Z,99930.15
2019-01-29T08:12:42.740Z,99933.82
2019-01-29T08:15:12.940Z,99938.70
2019-01-29T08:17:42.950Z,99936.86
2019-01-29T08:20:13.022Z,99933.92
2019-01-29T08:22:43.056Z,99932.59
2019-01-29T08:25:13.102Z,99946.23
2019-01-29T08:27:43.408Z,99948.26
2019-01-29T08:30:13.492Z,99946.73
2019-01-29T08:32:43.573Z,99943.17
2019-01-29T08:35:13.696Z,99947.75
2019-01-29T08:37:43.811Z,99942.77
2019-01-29T08:40:13.974Z,99942.47
2019-01-29T08:42:44.099Z,99939.49
2019-01-29T08:45:14.150Z,99945.09
2019-01-29T08:47:44.258Z,99945.63
2019-01-29T08:50:17.302Z,99943.87
2019-01-29T08:52:47.367Z,99945.33
2019-01-29T08:55:17.384Z,99947.54
2019-01-29T08:57:47.442Z,99955.79
2019-01-29T09:00:17.668Z,99957.84
2019-01-29T09:02:48.096Z,99960.39
2019-01-29T09:05:18.228Z,99958.77
2019-01-29T09:07:48.397Z,99961.81
2019-01-29T09:10:18.636Z,99965.69
2019-01-29T09:12:48.802Z,99965.79
2019-01-29T09:15:18.928Z,99974.96
2019-01-29T09:17:49.350Z,99976.38
2019-01-29T09:20:19.566Z,99978.44
2019-01-29T09:22:49.795Z,99978.94
2019-01-29T09:25:22.532Z,99981.89
2019-01-29T09:27:51.629Z,99974.34
2019-01-29T09:30:22.265Z,99982.38
2019-01-29T09:32:52.314Z,99989.64
2019-01-29T09:35:22.437Z,99986.25
2019-01-29T09:37:52.486Z,99985.43
2019-01-29T09:40:22.573Z,99994.11
2019-01-29T09:42:52.676Z,99983.81
2019-01-29T09:45:22.866Z,99983.02
2019-01-29T09:47:52.972Z,99981.45
2019-01-29T09:50:23.611Z,99987.45
2019-01-29T09:52:55.994Z,99982.97
2019-01-29T09:55:29.504Z,99982.88
2019-01-29T09:57:58.055Z,99978.59
2019-01-29T10:00:30.520Z,99981.75
2019-01-29T10:03:02.141Z,99990.42
2019-01-29T10:05:32.857Z,99980.52
2019-01-29T10:08:07.203Z,99980.02
2019-01-29T10:10:40.175Z,99976.92
2019-01-29T10:13:10.603Z,99984.23
2019-01-29T10:15:40.734Z,99987.83
2019-01-29T10:18:10.970Z,99982.42
2019-01-29T10:20:41.018Z,99982.52
2019-01-29T10:23:11.142Z,99984.47
2019-01-29T10:25:41.224Z,99979.84
2019-01-29T10:28:11.274Z,99976.70
2019-01-29T10:30:41.907Z,99975.05
2019-01-29T10:33:12.232Z,99969.36
2019-01-29T10:35:42.320Z,99965.56
2019-01-29T10:38:12.404Z,99960.64
2019-01-29T10:40:42.768Z,99963.45
2019-01-29T10:43:12.867Z,99965.16
2019-01-29T10:45:42.927Z,99962.16
2019-01-29T10:48:12.918Z,99957.90
2019-01-29T10:50:43.027Z,99955.94
2019-01-29T10:53:13.071Z,99953.52
2019-01-29T10:55:47.316Z,99951.12
2019-01-29T10:58:14.924Z,99953.95
2019-01-29T11:00:45.621Z,99956.42
2019-01-29T11:03:15.647Z,99957.86
2019-01-29T11:05:45.725Z,99955.83
2019-01-29T11:08:15.733Z,99955.28
2019-01-29T11:10:45.792Z,99945.72
2019-01-29T11:13:15.809Z,99953.77
2019-01-29T11:15:45.861Z,99946.45
2019-01-29T11:18:16.541Z,99942.93
2019-01-29T11:20:46.683Z,99940.28
2019-01-29T11:23:17.249Z,99943.93
2019-01-29T11:25:55.411Z,99944.08
2019-01-29T11:28:19.169Z,99940.08
2019-01-29T11:30:49.439Z,99938.69
2019-01-29T11:33:22.389Z,99946.71
2019-01-29T11:35:52.473Z,99939.16
2019-01-29T11:38:22.524Z,99940.19
2019-01-29T11:40:52.663Z,99934.89
2019-01-29T11:43:22.781Z,99928.34
2019-01-29T11:45:53.995Z,99929.66
2019-01-29T11:48:24.019Z,99932.46
2019-01-29T11:50:54.437Z,99930.00
2019-01-29T11:53:24.465Z,99926.97
2019-01-29T11:55:54.518Z,99931.12
2019-01-29T11:58:24.577Z,99925.10
2019-01-29T12:00:58.959Z,99928.20
2019-01-29T12:03:31.163Z,99927.41
2019-01-29T12:06:01.195Z,99929.27
2019-01-29T12:08:31.269Z,99928.36
2019-01-29T12:11:01.346Z,99928.50
2019-01-29T12:13:31.519Z,99928.30
2019-01-29T12:16:01.563Z,99938.75
2019-01-29T12:18:32.729Z,99926.39
2019-01-29T12:21:03.218Z,99924.56
2019-01-29T12:23:33.368Z,99927.59
2019-01-29T12:26:03.481Z,99921.75
2019-01-29T12:28:33.559Z,99919.05
2019-01-29T12:31:03.775Z,99917.39
2019-01-29T12:33:34.142Z,99918.88
2019-01-29T12:36:04.355Z,99913.70
2019-01-29T12:38:34.496Z,99914.69
2019-01-29T12:41:04.630Z,99920.83
2019-01-29T12:43:34.682Z,99915.56
2019-01-29T12:46:04.855Z,99909.59
2019-01-29T12:48:34.884Z,99912.08
2019-01-29T12:51:08.818Z,99907.88
2019-01-29T12:53:41.482Z,99915.72
2019-01-29T12:56:11.617Z,99910.00
2019-01-29T12:58:46.687Z,99914.78
2019-01-29T13:01:17.015Z,99914.11
2019-01-29T13:03:47.243Z,99914.86
2019-01-29T13:06:17.324Z,99914.02
2019-01-29T13:08:52.934Z,99918.02
2019-01-29T13:11:23.077Z,99912.63
2019-01-29T13:13:53.190Z,99908.20
2019-01-29T13:16:23.352Z,99909.30
2019-01-29T13:18:53.455Z,99913.19
2019-01-29T13:21:23.533Z,99909.46
2019-01-29T13:23:53.569Z,99904.36
2019-01-29T13:26:29.854Z,99915.06
2019-01-29T13:28:55.477Z,99913.65
2019-01-29T13:31:27.415Z,99911.20
2019-01-29T13:33:57.584Z,99914.15
2019-01-29T13:36:27.914Z,99916.36
2019-01-29T13:38:58.038Z,99907.91
2019-01-29T13:41:28.222Z,99918.92
2019-01-29T13:43:58.256Z,99912.46
2019-01-29T13:46:28.373Z,99907.25
2019-01-29T13:48:58.430Z,99913.89
2019-01-29T13:51:28.565Z,99910.44
2019-01-29T13:53:58.682Z,99915.44
2019-01-29T13:56:28.786Z,99912.97
2019-01-29T13:58:58.884Z,99913.89
2019-01-29T14:01:28.968Z,99911.53
2019-01-29T14:04:06.064Z,99910.84
2019-01-29T14:06:30.884Z,99915.44
2019-01-29T14:09:00.939Z,99917.96
2019-01-29T14:11:31.062Z,99912.52
2019-01-29T14:14:01.104Z,99904.25
2019-01-29T14:16:32.786Z,99903.19
2019-01-29T14:19:02.937Z,99891.48
2019-01-29T14:21:33.018Z,99889.98
2019-01-29T14:24:03.156Z,99896.97
2019-01-29T14:26:33.215Z,99899.20
2019-01-29T14:29:03.292Z,99894.44
2019-01-29T14:31:33.318Z,99904.03
2019-01-29T14:34:03.500Z,99901.19
2019-01-29T14:36:33.636Z,99892.33
2019-01-29T14:39:26.110Z,99895.31
2019-01-29T14:41:56.209Z,99890.00
2019-01-29T14:44:38.874Z,99890.12
2019-01-29T14:47:09.004Z,99883.12
2019-01-29T14:49:39.128Z,99887.99
2019-01-29T14:52:09.267Z,99885.17
2019-01-29T14:54:39.458Z,99882.91
2019-01-29T14:57:09.467Z,99879.48
2019-01-29T14:59:39.614Z,99875.88
2019-01-29T15:02:09.767Z,99877.76
2019-01-29T15:04:39.856Z,99880.86
2019-01-29T15:07:10.508Z,99878.44
2019-01-29T15:09:40.847Z,99879.37
2019-01-29T15:12:10.923Z,99882.38
2019-01-29T15:14:41.048Z,99883.95
2019-01-29T15:17:31.577Z,99884.25
2019-01-29T15:20:01.625Z,99885.02
2019-01-29T15:22:31.668Z,99887.21
2019-01-29T15:25:01.849Z,99878.19
2019-01-29T15:27:31.853Z,99884.48
2019-01-29T15:30:01.934Z,99878.21
2019-01-29T15:32:32.063Z,99880.70
2019-01-29T15:35:02.514Z,99884.32
2019-01-29T15:37:32.590Z,99881.29
2019-01-29T15:40:04.231Z,99886.75
2019-01-29T15:42:34.372Z,99875.17
2019-01-29T15:45:05.157Z,99876.52
2019-01-29T15:47:35.314Z,99881.91
2019-01-29T15:50:06.502Z,99877.67
2019-01-29T15:52:36.658Z,99879.09
2019-01-29T15:55:08.357Z,99877.84
2019-01-29T15:57:41.068Z,99883.15
2019-01-29T16:00:17.773Z,99881.13
2019-01-29T16:02:47.818Z,99878.27
2019-01-29T16:05:21.256Z,99873.95
2019-01-29T16:07:51.267Z,99878.05
2019-01-29T16:10:24.249Z,99882.38
2019-01-29T16:12:54.393Z,99878.66
2019-01-29T16:15:24.885Z,99880.66
2019-01-29T16:17:54.971Z,99882.41
2019-01-29T16:20:25.917Z,99880.25
2019-01-29T16:22:56.032Z,99879.45
2019-01-29T16:25:26.542Z,99873.09
2019-01-29T16:27:56.640Z,99870.57
2019-01-29T16:30:27.433Z,99870.14
2019-01-29T16:32:57.449Z,99869.34
2019-01-29T16:35:29.776Z,99866.98
2019-01-29T16:37:59.841Z,99864.60
2019-01-29T16:40:30.257Z,99860.53
2019-01-29T16:43:00.330Z,99864.83
2019-01-29T16:45:32.110Z,99863.23
2019-01-29T16:48:02.437Z,99865.37
2019-01-29T16:50:32.567Z,99864.66
2019-01-29T16:53:02.930Z,99862.56
2019-01-29T16:55:33.014Z,99861.68
2019-01-29T16:58:03.063Z,99860.23
2019-01-29T17:00:33.199Z,99858.28
2019-01-29T17:03:03.409Z,99854.13
2019-01-29T17:05:33.481Z,99853.72
2019-01-29T17:08:04.289Z,99859.59
2019-01-29T17:10:34.373Z,99854.75
2019-01-29T17:13:05.640Z,99856.53
2019-01-29T17:15:35.881Z,99850.22
2019-01-29T17:18:06.309Z,99852.72
2019-01-29T17:20:38.125Z,99850.48
2019-01-29T17:23:09.153Z,99855.78
2019-01-29T17:25:39.236Z,99852.31
2019-01-29T17:28:09.295Z,99847.06
2019-01-29T17:30:41.341Z,99851.22
2019-01-29T17:33:13.375Z,99841.70
2019-01-29T17:35:43.448Z,99853.05
2019-01-29T17:38:13.509Z,99852.05
2019-01-29T17:40:44.139Z,99849.66
2019-01-29T17:43:14.277Z,99841.55
2019-01-29T17:45:46.039Z,99842.97
2019-01-29T17:48:16.100Z,99842.77
2019-01-29T17:50:46.279Z,99840.62
2019-01-29T17:53:16.429Z,99841.64
2019-01-29T17:55:46.672Z,99845.62
2019-01-29T17:58:16.813Z,99838.81
2019-01-29T18:00:50.247Z,99839.79
2019-01-29T18:03:20.419Z,99837.76
2019-01-29T18:05:50.446Z,99842.67
2019-01-29T18:08:20.514Z,99841.85
2019-01-29T18:10:50.612Z,99844.83
2019-01-29T18:13:20.693Z,99847.45
2019-01-29T18:15:50.705Z,99846.48
2019-01-29T18:18:20.803Z,99843.23
2019-01-29T18:20:50.881Z,99846.77
2019-01-29T18:23:20.924Z,99839.69
2019-01-29T18:25:50.993Z,99845.67
2019-01-29T18:28:21.142Z,99833.45
2019-01-29T18:30:51.195Z,99830.12
2019-01-29T18:33:21.231Z,99834.82
2019-01-29T18:35:52.037Z,99829.00
2019-01-29T18:38:22.095Z,99829.70
2019-01-29T18:40:54.690Z,99826.28
2019-01-29T18:43:24.739Z,99833.22
2019-01-29T18:45:54.781Z,99832.15
2019-01-29T18:48:24.936Z,99832.76
2019-01-29T18:50:54.962Z,99826.00
2019-01-29T18:53:25.044Z,99831.51
2019-01-29T18:55:55.063Z,99828.38
2019-01-29T18:58:25.107Z,99830.09
2019-01-29T19:00:55.175Z,99823.27
2019-01-29T19:03:25.199Z,99819.38
2019-01-29T19:05:55.252Z,99818.34
2019-01-29T19:08:25.370Z,99816.64
2019-01-29T19:10:55.370Z,99810.23
2019-01-29T19:13:25.424Z,99816.56
2019-01-29T19:15:55.448Z,99815.53
2019-01-29T19:18:25.508Z,99812.19
2019-01-29T19:20:55.515Z,99808.62
2019-01-29T19:23:25.963Z,99808.21
2019-01-29T19:25:56.100Z,99807.61
2019-01-29T19:28:26.189Z,99808.13
2019-01-29T19:30:57.599Z,99801.90
2019-01-29T19:33:27.705Z,99804.25
2019-01-29T19:35:57.791Z,99807.97
2019-01-29T19:38:27.827Z,99811.37
2019-01-29T19:40:57.876Z,99811.64
2019-01-29T19:43:27.986Z,99805.38
2019-01-29T19:45:58.076Z,99809.75
2019-01-29T19:48:29.838Z,99812.73
2019-01-29T19:51:00.011Z,99812.53
2019-01-29T19:53:30.064Z,99815.29
2019-01-29T19:56:00.097Z,99814.79
2019-01-29T19:58:32.334Z,99810.50
2019-01-29T20:01:03.412Z,99800.14
2019-01-29T20:03:33.453Z,99801.17
2019-01-29T20:06:03.436Z,99809.59
2019-01-29T20:08:33.466Z,99807.77
2019-01-29T20:11:03.532Z,99809.03
2019-01-29T20:13:33.562Z,99810.14
2019-01-29T20:16:03.622Z,99809.61
2019-01-29T20:18:33.632Z,99802.38
2019-01-29T20:21:03.666Z,99804.31
2019-01-29T20:23:33.670Z,99808.16
2019-01-29T20:26:03.694Z,99802.09
2019-01-29T20:28:42.258Z,99798.53
2019-01-29T20:31:05.680Z,99793.57
2019-01-29T20:33:35.754Z,99799.07
2019-01-29T20:36:05.762Z,99794.17
2019-01-29T20:38:36.055Z,99797.40
2019-01-29T20:41:10.506Z,99788.56
2019-01-29T20:43:40.596Z,99790.38
2019-01-29T20:46:10.678Z,99786.89
2019-01-29T20:48:40.723Z,99791.34
2019-01-29T20:51:10.805Z,99789.37
2019-01-29T20:53:40.850Z,99792.86
2019-01-29T20:56:10.913Z,99785.00
2019-01-29T20:58:41.085Z,99789.62
2019-01-29T21:01:11.274Z,99785.30
2019-01-29T21:03:41.293Z,99776.97
2019-01-29T21:06:11.454Z,99780.44
2019-01-29T21:08:41.482Z,99771.39
2019-01-29T21:11:11.550Z,99772.60
2019-01-29T21:13:41.708Z,99773.82
2019-01-29T21:16:11.843Z,99772.80
2019-01-29T21:18:41.884Z,99771.78
2019-01-29T21:21:11.932Z,99772.02
2019-01-29T21:23:41.906Z,99761.52
2019-01-29T21:26:12.018Z,99768.64
2019-01-29T21:28:42.035Z,99769.12
2019-01-29T21:31:12.146Z,99763.53
2019-01-29T21:33:42.129Z,99763.34
2019-01-29T21:36:12.256Z,99760.11
2019-01-29T21:38:42.303Z,99761.52
2019-01-29T21:41:12.415Z,99761.53
2019-01-29T21:43:42.422Z,99765.80
2019-01-29T21:46:12.476Z,99760.30
2019-01-29T21:48:42.482Z,99759.91
2019-01-29T21:51:12.625Z,99758.16
2019-01-29T21:53:42.669Z,99762.96
2019-01-29T21:56:12.690Z,99756.23
2019-01-29T21:58:42.978Z,99761.83
2019-01-29T22:01:13.137Z,99757.27
2019-01-29T22:03:43.191Z,99761.94
2019-01-29T22:06:13.189Z,99757.57
2019-01-29T22:08:44.072Z,99751.78
2019-01-29T22:11:14.069Z,99750.22
2019-01-29T22:13:44.082Z,99744.63
2019-01-29T22:16:14.353Z,99743.31
2019-01-29T22:18:44.376Z,99746.69
2019-01-29T22:21:14.391Z,99745.91
2019-01-29T22:23:44.417Z,99743.66
2019-01-29T22:26:14.446Z,99744.64
2019-01-29T22:28:44.482Z,99749.14
2019-01-29T22:31:14.483Z,99738.27
2019-01-29T22:33:44.516Z,99743.12
2019-01-29T22:36:14.580Z,99745.38
2019-01-29T22:38:44.578Z,99737.14
2019-01-29T22:41:14.578Z,99729.20
2019-01-29T22:43:44.688Z,99725.88
2019-01-29T22:46:14.695Z,99731.35
2019-01-29T22:48:44.690Z,99727.89
2019-01-29T22:51:14.709Z,99720.58
2019-01-29T22:53:44.812Z,99720.28
2019-01-29T22:56:14.835Z,99722.30
2019-01-29T22:58:44.914Z,99715.98
2019-01-29T23:01:43.197Z,99712.01
2019-01-29T23:04:21.493Z,99711.81
2019-01-29T23:07:15.143Z,99709.89
2019-01-29T23:09:45.396Z,99707.16
2019-01-29T23:12:15.435Z,99716.00
2019-01-29T23:14:45.548Z,99709.60
2019-01-29T23:17:15.586Z,99708.28
2019-01-29T23:19:45.610Z,99705.44
2019-01-29T23:22:41.843Z,99702.56
2019-01-29T23:25:20.636Z,99701.66
2019-01-29T23:28:04.458Z,99705.94
2019-01-29T23:30:46.381Z,99699.02
2019-01-29T23:33:25.642Z,99690.56
2019-01-29T23:35:55.733Z,99695.88
2019-01-29T23:38:28.055Z,99692.41
2019-01-29T23:41:01.501Z,99686.73
2019-01-29T23:43:38.901Z,99686.79
2019-01-29T23:46:19.264Z,99683.25
2019-01-29T23:48:55.729Z,99675.91
2019-01-29T23:51:34.368Z,99670.91
2019-01-29T23:54:04.404Z,99675.13
2019-01-29T23:56:34.439Z,99666.99
2019-01-29T23:59:04.685Z,99671.66
